createdAt,value
2022-11-07T00:01:21.308Z,15.769886
2022-11-07T00:06:29.445Z,15.881632
2022-11-07T00:11:32.275Z,15.241502
2022-11-07T00:16:34.075Z,15.214322
2022-11-07T00:21:35.994Z,15.209736
2022-11-07T00:26:38.243Z,15.261096
2022-11-07T00:31:40.271Z,15.31821
2022-11-07T00:36:42.039Z,15.578082
2022-11-07T00:41:43.993Z,14.953746
2022-11-07T00:46:46.038Z,14.746756
2022-11-07T00:51:47.458Z,15.168864
2022-11-07T00:56:49.866Z,14.56255
2022-11-07T01:01:52.331Z,15.462008
2022-11-07T01:06:54.203Z,14.771032
2022-11-07T01:11:55.978Z,15.189694
2022-11-07T01:16:57.958Z,14.671472
2022-11-07T01:21:59.804Z,15.209994
2022-11-07T01:27:01.859Z,14.709426
2022-11-07T01:32:04.418Z,13.981474
2022-11-07T01:37:06.621Z,14.467658
2022-11-07T01:42:08.813Z,14.572428
2022-11-07T01:47:10.602Z,14.557692
2022-11-07T01:52:12.049Z,14.702804
2022-11-07T01:57:13.809Z,14.693536
2022-11-07T02:02:15.902Z,14.900174
2022-11-07T02:07:17.577Z,13.727534
2022-11-07T02:12:19.031Z,14.643492
2022-11-07T02:17:20.854Z,14.949784
2022-11-07T02:22:22.310Z,14.997888
2022-11-07T02:27:24.122Z,15.162868
2022-11-07T02:32:25.926Z,14.768658
2022-11-07T02:37:27.425Z,14.148136
2022-11-07T02:42:29.140Z,14.699196
2022-11-07T02:47:30.667Z,15.14733
2022-11-07T02:52:32.124Z,14.814726
2022-11-07T02:57:33.794Z,14.889318
2022-11-07T03:02:35.829Z,14.965226
2022-11-07T03:07:37.340Z,15.07229
2022-11-07T03:12:39.003Z,15.464206
2022-11-07T03:17:40.469Z,15.229588
2022-11-07T03:22:41.934Z,15.830964
2022-11-07T03:27:43.354Z,15.5696
2022-11-07T03:32:45.255Z,15.525472
2022-11-07T03:37:46.976Z,15.416902
2022-11-07T03:42:48.621Z,15.258016
2022-11-07T03:47:50.485Z,15.984204
2022-11-07T03:52:52.132Z,15.849418
2022-11-07T03:57:53.591Z,15.76397
2022-11-07T04:02:55.899Z,16.096574
2022-11-07T04:07:57.588Z,15.402504
2022-11-07T04:12:59.313Z,14.855244
2022-11-07T04:18:00.929Z,15.592464
2022-11-07T04:23:02.788Z,16.208142
2022-11-07T04:28:04.391Z,16.256776
2022-11-07T04:33:06.382Z,15.83061
2022-11-07T04:38:07.879Z,15.834762
2022-11-07T04:43:09.504Z,15.717982
2022-11-07T04:48:11.289Z,15.593794
2022-11-07T04:53:13.319Z,16.845898
2022-11-07T04:58:15.216Z,15.903166
2022-11-07T05:03:17.656Z,15.63316
2022-11-07T05:08:19.665Z,15.743752
2022-11-07T05:13:21.427Z,17.09703
2022-11-07T05:18:23.207Z,17.12307
2022-11-07T05:23:25.100Z,17.50413
2022-11-07T05:28:35.294Z,16.922688
2022-11-07T05:33:39.289Z,17.534404
2022-11-07T05:38:41.043Z,16.406312
2022-11-07T05:43:42.797Z,17.84398
2022-11-07T05:48:44.632Z,17.92978
2022-11-07T05:53:46.426Z,17.691716
2022-11-07T05:58:48.322Z,18.07815
2022-11-07T06:03:50.384Z,18.694914
2022-11-07T06:08:52.138Z,18.875172
2022-11-07T06:13:53.787Z,18.430728
2022-11-07T06:18:55.688Z,18.479456
2022-11-07T06:23:57.433Z,19.100264
2022-11-07T06:28:59.198Z,18.854872
2022-11-07T06:34:01.274Z,18.73854
2022-11-07T06:39:03.146Z,19.16647
2022-11-07T06:44:04.892Z,19.192252
2022-11-07T06:49:06.879Z,19.688084
2022-11-07T06:54:08.652Z,19.829954
2022-11-07T06:59:10.424Z,19.33746
2022-11-07T07:04:12.433Z,19.647226
2022-11-07T07:09:14.119Z,19.352726
2022-11-07T07:14:15.926Z,18.67479
2022-11-07T07:19:17.931Z,19.145288
2022-11-07T07:24:19.735Z,19.087468
2022-11-07T07:29:21.643Z,19.2777
2022-11-07T07:34:23.517Z,19.131352
2022-11-07T07:39:25.231Z,18.730154
2022-11-07T07:44:26.679Z,18.371578
2022-11-07T07:49:28.296Z,18.777444
2022-11-07T07:54:30.065Z,18.350478
2022-11-07T07:59:31.589Z,18.825372
2022-11-07T08:04:33.297Z,18.131044
2022-11-07T08:09:34.981Z,18.894672
2022-11-07T08:14:36.580Z,18.939872
2022-11-07T08:19:38.330Z,19.354938
2022-11-07T08:24:39.815Z,18.842076
2022-11-07T08:29:41.378Z,19.375754
2022-11-07T08:34:43.452Z,18.603116
2022-11-07T08:39:44.899Z,19.309466
2022-11-07T08:44:46.374Z,19.220504
2022-11-07T08:49:48.196Z,19.76117
2022-11-07T08:54:49.607Z,19.23444
2022-11-07T08:59:51.107Z,18.795288
2022-11-07T09:04:53.182Z,19.227384
2022-11-07T09:09:54.993Z,18.924416
2022-11-07T09:14:56.530Z,19.138218
2022-11-07T09:19:58.199Z,18.91489
2022-11-07T09:25:00.054Z,19.414074
2022-11-07T09:30:02.051Z,19.462178
2022-11-07T09:35:05.181Z,19.749066
2022-11-07T09:40:07.373Z,19.29207
2022-11-07T09:45:09.369Z,19.403734
2022-11-07T09:50:11.477Z,19.638732
2022-11-07T09:55:13.473Z,19.485572
2022-11-07T10:00:16.088Z,18.460296
2022-11-07T10:05:17.973Z,19.194274
2022-11-07T10:10:19.865Z,19.530148
2022-11-07T10:15:21.739Z,19.649954
2022-11-07T10:20:25.156Z,19.549566
2022-11-07T10:25:26.936Z,18.858658
2022-11-07T10:30:28.529Z,19.346918
2022-11-07T10:35:30.273Z,20.012302
2022-11-07T10:40:31.755Z,19.272394
2022-11-07T10:45:33.330Z,19.340296
2022-11-07T10:50:34.871Z,18.983932
2022-11-07T10:55:36.477Z,19.021968
2022-11-07T11:00:38.121Z,18.957268
2022-11-07T11:05:40.022Z,19.806004
2022-11-07T11:10:41.481Z,19.98116
2022-11-07T11:15:43.139Z,19.555754
2022-11-07T11:20:44.748Z,19.982476
2022-11-07T11:25:46.331Z,19.537584
2022-11-07T11:30:47.995Z,19.807768
2022-11-07T11:35:49.755Z,20.328948
2022-11-07T11:40:53.359Z,19.590112
2022-11-07T11:45:57.234Z,20.312624
2022-11-07T11:50:58.726Z,20.259662
2022-11-07T11:56:00.169Z,20.032358
2022-11-07T12:01:02.063Z,20.256758
2022-11-07T12:06:03.810Z,20.032548
2022-11-07T12:11:05.278Z,20.584884
2022-11-07T12:16:06.734Z,20.115702
2022-11-07T12:21:08.474Z,20.683114
2022-11-07T12:26:10.270Z,20.112174
2022-11-07T12:31:12.148Z,19.576868
2022-11-07T12:36:14.332Z,19.31275
2022-11-07T12:41:16.257Z,19.805488
2022-11-07T12:46:18.168Z,18.742584
2022-11-07T12:51:19.994Z,19.235064
2022-11-07T12:56:21.980Z,19.319616
2022-11-07T13:01:23.921Z,18.441136
2022-11-07T13:06:26.212Z,18.194414
2022-11-07T13:11:27.879Z,18.586086
2022-11-07T13:16:29.564Z,18.399382
2022-11-07T13:21:31.372Z,17.870644
2022-11-07T13:26:47.038Z,17.937908
2022-11-07T13:31:49.659Z,18.41652
2022-11-07T13:36:51.650Z,17.937908
2022-11-07T13:41:53.655Z,18.202718
2022-11-07T13:46:55.431Z,18.290364
2022-11-07T13:51:57.390Z,17.601152
2022-11-07T13:56:59.449Z,17.112648
2022-11-07T14:02:01.532Z,17.508812
2022-11-07T14:07:03.750Z,17.59814
2022-11-07T14:12:05.749Z,17.623122
2022-11-07T14:17:07.579Z,17.597882
2022-11-07T14:22:14.563Z,17.213728
2022-11-07T14:27:16.562Z,17.860562
2022-11-07T14:32:18.361Z,17.574122
2022-11-07T14:37:20.480Z,17.47174
2022-11-07T14:42:22.319Z,17.081574
2022-11-07T14:47:24.225Z,17.616052
2022-11-07T14:52:26.343Z,17.760378
2022-11-07T14:57:28.446Z,17.478796
2022-11-07T15:02:30.192Z,18.130678
2022-11-07T15:07:32.146Z,17.726318
2022-11-07T15:12:33.600Z,17.566184
2022-11-07T15:17:39.957Z,17.942142
2022-11-07T15:22:42.159Z,17.210458
2022-11-07T15:27:44.009Z,17.387432
2022-11-07T15:32:46.035Z,17.136748
2022-11-07T15:37:48.133Z,17.5962
2022-11-07T15:42:50.353Z,17.161906
2022-11-07T15:47:51.939Z,16.645516
2022-11-07T15:52:54.104Z,16.96991
2022-11-07T15:57:55.889Z,16.78896
2022-11-07T16:02:57.898Z,17.135608
2022-11-07T16:07:59.966Z,16.998786
2022-11-07T16:13:05.021Z,16.775024
2022-11-07T16:18:06.965Z,16.908752
2022-11-07T16:23:08.916Z,16.704842
2022-11-07T16:28:10.495Z,16.733976
2022-11-07T16:33:12.273Z,16.537828
2022-11-07T16:38:15.277Z,16.485314
2022-11-07T16:43:17.070Z,16.470306
2022-11-07T16:48:18.877Z,16.68039
2022-11-07T16:53:20.725Z,16.625922
2022-11-07T16:58:22.277Z,16.793288
2022-11-07T17:03:24.000Z,17.083528
2022-11-07T17:08:25.924Z,17.148662
2022-11-07T17:13:27.655Z,15.890818
2022-11-07T17:18:29.650Z,16.731412
2022-11-07T17:23:31.333Z,16.592554
2022-11-07T17:28:33.056Z,16.094714
2022-11-07T17:33:34.507Z,16.1272
2022-11-07T17:38:36.526Z,16.285638
2022-11-07T17:43:38.115Z,16.303292
2022-11-07T17:48:44.763Z,15.911552
2022-11-07T17:53:49.513Z,15.969196
2022-11-07T17:58:51.340Z,16.182184
2022-11-07T18:03:53.101Z,15.790892
2022-11-07T18:08:55.798Z,15.981286
2022-11-07T18:13:57.863Z,15.846676
2022-11-07T18:18:59.620Z,16.011302
2022-11-07T18:24:01.677Z,16.024194
2022-11-07T18:29:03.423Z,16.161368
2022-11-07T18:34:04.912Z,15.648954
2022-11-07T18:39:07.152Z,15.269834
2022-11-07T18:44:08.957Z,16.077766
2022-11-07T18:49:10.868Z,15.628736
2022-11-07T18:54:12.418Z,15.147764
2022-11-07T18:59:14.394Z,15.722922
2022-11-07T19:04:16.214Z,15.558038
2022-11-07T19:09:20.626Z,16.448948
2022-11-07T19:14:24.238Z,15.218732
2022-11-07T19:19:26.036Z,15.898852
2022-11-07T19:24:28.057Z,15.829904
2022-11-07T19:29:30.159Z,15.480272
2022-11-07T19:34:31.972Z,15.057024
2022-11-07T19:39:33.816Z,14.846234
2022-11-07T19:44:35.623Z,15.277434
2022-11-07T19:49:37.091Z,15.847206
2022-11-07T19:54:38.896Z,15.288724
2022-11-07T20:04:41.549Z,15.730698
2022-11-07T20:09:43.331Z,15.243538
2022-11-07T20:14:44.995Z,15.16322
2022-11-07T20:19:47.117Z,15.038054
2022-11-07T20:24:48.879Z,15.472768
2022-11-07T20:29:50.690Z,14.69275
2022-11-07T20:34:53.947Z,15.855592
2022-11-07T20:39:55.864Z,15.99312
2022-11-07T20:44:57.535Z,15.261192
2022-11-07T20:49:59.344Z,15.63183
2022-11-07T20:55:01.122Z,15.700234
2022-11-07T21:00:02.921Z,15.742164
2022-11-07T21:05:20.253Z,14.943772
2022-11-07T21:10:22.145Z,15.39686
2022-11-07T21:15:23.606Z,15.317424
2022-11-07T21:20:25.310Z,15.49148
2022-11-07T21:25:26.762Z,15.565976
2022-11-07T21:30:28.249Z,15.85604
2022-11-07T21:35:33.505Z,15.044756
2022-11-07T21:40:35.250Z,16.067888
2022-11-07T21:45:37.069Z,15.441612
2022-11-07T21:50:44.620Z,14.658582
2022-11-07T21:55:47.068Z,14.143374
2022-11-07T22:00:49.047Z,14.271362
2022-11-07T22:05:51.070Z,14.78155
2022-11-07T22:10:52.950Z,14.647292
2022-11-07T22:15:54.883Z,14.706862
2022-11-07T22:20:56.905Z,14.79866
2022-11-07T22:25:58.662Z,14.834416
2022-11-07T22:31:00.129Z,14.734232
2022-11-07T22:36:01.876Z,14.991538
2022-11-07T22:41:03.681Z,14.797778
2022-11-07T22:46:05.458Z,14.68895
2022-11-07T22:51:07.255Z,14.616828
2022-11-07T22:56:08.938Z,14.831322
2022-11-07T23:01:10.704Z,15.13338
2022-11-07T23:06:12.955Z,14.87811
2022-11-07T23:11:44.861Z,14.809692
2022-11-07T23:16:47.713Z,14.435172
2022-11-07T23:21:49.426Z,14.963638
2022-11-07T23:26:51.049Z,14.658758
2022-11-07T23:31:52.691Z,14.975376
2022-11-07T23:36:54.529Z,15.075302
2022-11-07T23:41:56.321Z,15.305062
2022-11-07T23:46:58.142Z,14.753378
2022-11-07T23:52:00.111Z,14.704568
2022-11-07T23:57:01.948Z,14.834592
